createdAt,value
2018-01-27T00:00:41.182Z,45.80
2018-01-27T00:01:41.171Z,48.00
2018-01-27T00:02:41.160Z,45.50
2018-01-27T00:03:41.153Z,45.50
2018-01-27T00:04:41.153Z,43.10
2018-01-27T00:05:41.136Z,46.70
2018-01-27T00:06:41.127Z,43.80
2018-01-27T00:07:41.111Z,50.30
2018-01-27T00:08:41.108Z,42.50
2018-01-27T00:09:41.090Z,48.90
2018-01-27T00:10:41.085Z,46.50
2018-01-27T00:11:41.077Z,46.60
2018-01-27T00:12:41.064Z,49.80
2018-01-27T00:13:41.053Z,45.10
2018-01-27T00:14:41.043Z,46.10
2018-01-27T00:15:41.034Z,45.20
2018-01-27T00:16:41.040Z,46.90
2018-01-27T00:17:41.021Z,48.60
2018-01-27T00:18:41.005Z,42.00
2018-01-27T00:19:41.008Z,50.00
2018-01-27T00:20:40.980Z,62.90
2018-01-27T00:21:40.977Z,63.50
2018-01-27T00:22:40.962Z,64.10
2018-01-27T00:23:40.950Z,51.70
2018-01-27T00:24:40.945Z,52.00
2018-01-27T00:25:40.931Z,56.50
2018-01-27T00:26:40.924Z,48.60
2018-01-27T00:27:40.909Z,43.60
2018-01-27T00:28:40.905Z,45.30
2018-01-27T00:29:40.890Z,43.30
2018-01-27T00:30:40.885Z,45.70
2018-01-27T00:31:40.870Z,46.40
2018-01-27T00:32:40.864Z,43.20
2018-01-27T00:33:40.854Z,46.80
2018-01-27T00:34:40.840Z,40.80
2018-01-27T00:35:40.835Z,46.10
2018-01-27T00:36:40.823Z,46.20
2018-01-27T00:37:40.813Z,45.80
2018-01-27T00:38:40.809Z,46.90
2018-01-27T00:39:40.799Z,43.50
2018-01-27T00:40:40.813Z,44.00
2018-01-27T00:41:40.779Z,46.40
2018-01-27T00:42:42.111Z,44.90
2018-01-27T00:43:40.781Z,45.30
2018-01-27T00:44:40.749Z,44.50
2018-01-27T00:45:40.734Z,43.90
2018-01-27T00:46:40.722Z,45.60
2018-01-27T00:47:40.716Z,47.30
2018-01-27T00:48:40.706Z,46.20
2018-01-27T00:49:40.696Z,45.40
2018-01-27T00:50:40.689Z,43.30
2018-01-27T00:51:40.674Z,48.80
2018-01-27T00:52:40.662Z,48.50
2018-01-27T00:53:40.652Z,50.70
2018-01-27T00:54:40.642Z,42.10
2018-01-27T00:55:40.645Z,46.90
2018-01-27T00:56:40.624Z,47.30
2018-01-27T00:57:40.617Z,53.70
2018-01-27T00:58:40.613Z,50.80
2018-01-27T00:59:40.593Z,45.90
2018-01-27T01:00:40.587Z,49.30
2018-01-27T01:01:40.573Z,45.00
2018-01-27T01:02:40.561Z,48.20
2018-01-27T01:03:40.565Z,48.00
2018-01-27T01:04:40.544Z,47.60
2018-01-27T01:05:40.542Z,47.50
2018-01-27T01:06:40.537Z,43.90
2018-01-27T01:07:40.514Z,53.10
2018-01-27T01:08:40.505Z,49.30
2018-01-27T01:09:40.494Z,49.00
2018-01-27T01:10:40.485Z,49.60
2018-01-27T01:11:40.474Z,52.20
2018-01-27T01:12:40.460Z,47.90
2018-01-27T01:13:40.490Z,48.80
2018-01-27T01:14:40.443Z,50.00
2018-01-27T01:15:40.477Z,46.20
2018-01-27T01:16:40.423Z,48.50
2018-01-27T01:17:40.414Z,48.40
2018-01-27T01:18:40.427Z,53.60
2018-01-27T01:19:40.408Z,52.40
2018-01-27T01:20:40.387Z,46.80
2018-01-27T01:21:40.372Z,49.50
2018-01-27T01:22:40.363Z,48.70
2018-01-27T01:23:40.353Z,47.00
2018-01-27T01:24:40.342Z,55.40
2018-01-27T01:25:40.333Z,49.60
2018-01-27T01:26:40.320Z,51.60
2018-01-27T01:27:40.312Z,51.10
2018-01-27T01:28:40.302Z,50.10
2018-01-27T01:29:40.290Z,48.00
2018-01-27T01:30:40.281Z,50.30
2018-01-27T01:31:40.271Z,49.60
2018-01-27T01:32:40.255Z,47.30
2018-01-27T01:33:40.251Z,48.40
2018-01-27T01:34:40.237Z,48.90
2018-01-27T01:35:40.232Z,51.00
2018-01-27T01:36:40.226Z,53.10
2018-01-27T01:37:40.212Z,47.20
2018-01-27T01:38:40.200Z,49.90
2018-01-27T01:39:40.189Z,51.10
2018-01-27T01:40:40.176Z,56.40
2018-01-27T01:41:40.189Z,57.20
2018-01-27T01:42:40.163Z,48.90
2018-01-27T01:43:40.149Z,51.30
2018-01-27T01:44:40.140Z,51.10
2018-01-27T01:45:40.133Z,55.20
2018-01-27T01:46:40.117Z,50.00
2018-01-27T01:47:40.110Z,55.90
2018-01-27T01:48:40.103Z,52.70
2018-01-27T01:49:40.090Z,50.20
2018-01-27T01:50:40.082Z,54.20
2018-01-27T01:51:40.070Z,51.70
2018-01-27T01:52:40.059Z,48.50
2018-01-27T01:53:40.051Z,53.20
2018-01-27T01:54:40.042Z,57.10
2018-01-27T01:55:40.030Z,57.30
2018-01-27T01:56:40.020Z,57.40
2018-01-27T01:57:40.012Z,55.40
2018-01-27T01:58:39.994Z,51.20
2018-01-27T01:59:39.992Z,57.40
2018-01-27T02:00:39.983Z,56.10
2018-01-27T02:01:39.968Z,53.50
2018-01-27T02:02:39.961Z,58.50
2018-01-27T02:03:39.956Z,57.60
2018-01-27T02:04:39.939Z,53.80
2018-01-27T02:05:39.927Z,53.80
2018-01-27T02:06:39.918Z,61.20
2018-01-27T02:07:39.909Z,59.40
2018-01-27T02:08:39.896Z,55.10
2018-01-27T02:09:39.889Z,57.40
2018-01-27T02:10:39.876Z,56.70
2018-01-27T02:11:39.866Z,56.10
2018-01-27T02:12:39.874Z,53.20
2018-01-27T02:13:39.846Z,56.40
2018-01-27T02:14:39.835Z,51.90
2018-01-27T02:15:39.824Z,60.50
2018-01-27T02:16:39.816Z,58.90
2018-01-27T02:17:39.803Z,54.80
2018-01-27T02:18:39.793Z,55.30
2018-01-27T02:19:39.802Z,57.80
2018-01-27T02:20:39.776Z,59.00
2018-01-27T02:21:39.801Z,57.40
2018-01-27T02:22:39.756Z,55.30
2018-01-27T02:23:39.743Z,52.50
2018-01-27T02:24:39.736Z,57.30
2018-01-27T02:25:39.726Z,58.50
2018-01-27T02:26:39.717Z,60.00
2018-01-27T02:27:39.706Z,53.70
2018-01-27T02:28:39.695Z,56.50
2018-01-27T02:29:39.684Z,63.70
2018-01-27T02:30:39.674Z,56.70
2018-01-27T02:31:39.665Z,55.90
2018-01-27T02:32:39.657Z,58.70
2018-01-27T02:33:39.645Z,59.50
2018-01-27T02:34:39.635Z,56.50
2018-01-27T02:35:39.622Z,58.80
2018-01-27T02:36:39.613Z,59.80
2018-01-27T02:37:39.610Z,59.10
2018-01-27T02:38:39.600Z,58.80
2018-01-27T02:39:39.584Z,58.50
2018-01-27T02:40:39.576Z,59.30
2018-01-27T02:41:39.566Z,58.00
2018-01-27T02:42:39.554Z,60.60
2018-01-27T02:43:39.552Z,62.40
2018-01-27T02:44:39.535Z,62.30
2018-01-27T02:45:39.521Z,55.90
2018-01-27T02:46:39.513Z,57.30
2018-01-27T02:47:39.501Z,62.40
2018-01-27T02:48:39.494Z,60.20
2018-01-27T02:49:39.481Z,58.30
2018-01-27T02:50:39.472Z,58.40
2018-01-27T02:51:39.462Z,62.60
2018-01-27T02:52:39.453Z,62.50
2018-01-27T02:53:39.442Z,63.50
2018-01-27T02:54:39.433Z,61.60
2018-01-27T02:55:39.420Z,63.10
2018-01-27T02:56:39.415Z,61.90
2018-01-27T02:57:39.400Z,62.70
2018-01-27T02:58:39.391Z,66.90
2018-01-27T02:59:39.380Z,60.40
2018-01-27T03:00:39.370Z,62.80
2018-01-27T03:01:39.358Z,74.90
2018-01-27T03:02:39.348Z,61.70
2018-01-27T03:03:39.339Z,64.70
2018-01-27T03:04:39.326Z,64.00
2018-01-27T03:05:39.318Z,58.10
2018-01-27T03:06:39.309Z,63.80
2018-01-27T03:07:39.297Z,60.50
2018-01-27T03:08:39.291Z,65.20
2018-01-27T03:09:39.305Z,68.90
2018-01-27T03:10:39.266Z,62.60
2018-01-27T03:11:39.253Z,61.60
2018-01-27T03:12:39.249Z,63.40
2018-01-27T03:13:39.235Z,61.10
2018-01-27T03:14:39.226Z,60.80
2018-01-27T03:15:39.222Z,58.10
2018-01-27T03:16:39.206Z,68.20
2018-01-27T03:17:39.197Z,63.90
2018-01-27T03:18:39.184Z,63.00
2018-01-27T03:19:39.174Z,68.00
2018-01-27T03:20:39.162Z,65.00
2018-01-27T03:21:39.158Z,72.60
2018-01-27T03:22:39.145Z,67.00
2018-01-27T03:23:39.134Z,67.50
2018-01-27T03:24:39.125Z,62.20
2018-01-27T03:25:39.111Z,62.70
2018-01-27T03:26:39.103Z,65.20
2018-01-27T03:27:39.095Z,64.10
2018-01-27T03:28:39.092Z,65.10
2018-01-27T03:29:39.074Z,66.40
2018-01-27T03:30:39.063Z,68.80
2018-01-27T03:31:39.057Z,66.20
2018-01-27T03:32:39.042Z,65.80
2018-01-27T03:33:39.037Z,62.00
2018-01-27T03:34:39.023Z,62.90
2018-01-27T03:35:39.013Z,63.70
2018-01-27T03:36:39.002Z,67.00
2018-01-27T03:37:38.991Z,64.90
2018-01-27T03:38:38.979Z,62.30
2018-01-27T03:39:38.969Z,65.60
2018-01-27T03:40:38.968Z,69.30
2018-01-27T03:41:38.949Z,71.00
2018-01-27T03:42:38.938Z,61.50
2018-01-27T03:43:38.930Z,66.50
2018-01-27T03:44:38.922Z,65.20
2018-01-27T03:45:38.906Z,66.30
2018-01-27T03:46:38.896Z,70.50
2018-01-27T03:47:38.891Z,70.80
2018-01-27T03:48:38.879Z,66.50
2018-01-27T03:49:38.865Z,68.60
2018-01-27T03:50:38.864Z,78.10
2018-01-27T03:51:38.848Z,76.80
2018-01-27T03:52:38.851Z,75.90
2018-01-27T03:53:38.826Z,77.60
2018-01-27T03:54:38.814Z,75.30
2018-01-27T03:55:38.805Z,77.70
2018-01-27T03:56:38.798Z,78.80
2018-01-27T03:57:38.792Z,82.10
2018-01-27T03:58:38.773Z,79.10
2018-01-27T03:59:38.764Z,84.10
2018-01-27T04:00:38.758Z,84.90
2018-01-27T04:01:38.743Z,79.60
2018-01-27T04:02:38.734Z,82.50
2018-01-27T04:03:38.728Z,85.60
2018-01-27T04:04:38.714Z,80.40
2018-01-27T04:05:38.704Z,79.80
2018-01-27T04:06:38.690Z,82.00
2018-01-27T04:07:38.680Z,82.70
2018-01-27T04:08:38.678Z,80.80
2018-01-27T04:09:38.664Z,80.70
2018-01-27T04:10:38.650Z,79.40
2018-01-27T04:11:38.640Z,81.10
2018-01-27T04:12:38.627Z,80.90
2018-01-27T04:13:38.615Z,87.40
2018-01-27T04:14:38.610Z,82.90
2018-01-27T04:15:38.602Z,87.00
2018-01-27T04:16:38.587Z,86.50
2018-01-27T04:17:38.579Z,86.20
2018-01-27T04:18:38.562Z,87.10
2018-01-27T04:19:38.555Z,83.50
2018-01-27T04:20:38.555Z,79.80
2018-01-27T04:21:38.536Z,85.00
2018-01-27T04:22:38.526Z,91.30
2018-01-27T04:23:38.514Z,85.90
2018-01-27T04:24:38.506Z,91.60
2018-01-27T04:25:38.495Z,80.00
2018-01-27T04:26:38.478Z,85.00
2018-01-27T04:27:38.487Z,83.60
2018-01-27T04:28:38.464Z,83.20
2018-01-27T04:29:38.455Z,92.10
2018-01-27T04:30:38.439Z,84.00
2018-01-27T04:31:38.431Z,88.00
2018-01-27T04:32:38.421Z,85.50
2018-01-27T04:33:38.410Z,88.10
2018-01-27T04:34:38.399Z,87.00
2018-01-27T04:35:38.391Z,83.40
2018-01-27T04:36:38.379Z,86.10
2018-01-27T04:37:38.370Z,90.50
2018-01-27T04:40:11.048Z,86.10
2018-01-27T04:41:10.979Z,85.90
2018-01-27T04:43:04.567Z,92.50
2018-01-27T04:44:04.530Z,87.00
2018-01-27T04:45:58.699Z,101.00
2018-01-27T04:46:58.682Z,87.70
2018-01-27T04:48:52.329Z,90.40
2018-01-27T04:49:52.293Z,100.10
2018-01-27T04:51:46.770Z,94.60
2018-01-27T04:52:46.543Z,96.40
2018-01-27T04:53:46.531Z,90.40
2018-01-27T04:54:46.523Z,94.60
2018-01-27T04:55:46.510Z,92.50
2018-01-27T04:56:46.502Z,93.60
2018-01-27T04:57:46.490Z,86.10
2018-01-27T04:58:46.481Z,98.50
2018-01-27T04:59:46.466Z,94.10
2018-01-27T05:00:46.459Z,87.60
2018-01-27T05:01:46.448Z,99.40
2018-01-27T05:02:46.459Z,92.20
2018-01-27T05:03:46.428Z,93.50
2018-01-27T05:04:46.421Z,92.10
2018-01-27T05:05:46.410Z,93.30
2018-01-27T05:06:46.400Z,94.40
2018-01-27T05:07:46.386Z,94.60
2018-01-27T05:08:46.373Z,84.30
2018-01-27T05:09:46.365Z,91.60
2018-01-27T05:10:46.354Z,97.20
2018-01-27T05:11:46.344Z,98.70
2018-01-27T05:12:46.332Z,93.60
2018-01-27T05:13:46.324Z,90.40
2018-01-27T05:14:46.312Z,97.60
2018-01-27T05:15:46.298Z,92.30
2018-01-27T05:16:46.299Z,91.90
2018-01-27T05:17:46.282Z,94.30
2018-01-27T05:18:46.269Z,102.00
2018-01-27T05:19:46.260Z,92.50
2018-01-27T05:20:46.250Z,93.20
2018-01-27T05:21:46.238Z,88.20
2018-01-27T05:22:46.229Z,90.20
2018-01-27T05:23:46.222Z,99.60
2018-01-27T05:24:46.208Z,86.80
2018-01-27T05:25:46.201Z,88.10
2018-01-27T05:26:46.195Z,89.20
2018-01-27T05:27:46.179Z,94.90
2018-01-27T05:28:46.168Z,94.90
2018-01-27T05:29:46.196Z,87.90
2018-01-27T05:30:46.147Z,95.80
2018-01-27T05:31:46.137Z,89.60
2018-01-27T05:32:46.130Z,88.80
2018-01-27T05:33:46.120Z,91.50
2018-01-27T05:34:46.111Z,85.30
2018-01-27T05:35:46.110Z,91.10
2018-01-27T05:36:46.085Z,94.30
2018-01-27T05:37:46.071Z,89.00
2018-01-27T05:38:46.061Z,90.20
2018-01-27T05:39:46.058Z,89.30
2018-01-27T05:40:46.049Z,88.30
2018-01-27T05:41:46.034Z,93.70
2018-01-27T05:42:46.025Z,88.60
2018-01-27T05:43:46.028Z,91.40
2018-01-27T05:44:46.008Z,85.30
2018-01-27T05:45:45.990Z,93.50
2018-01-27T05:46:46.008Z,85.90
2018-01-27T05:47:45.981Z,87.20
2018-01-27T05:48:45.960Z,88.70
2018-01-27T05:49:45.953Z,85.00
2018-01-27T05:50:45.942Z,94.50
2018-01-27T05:51:45.930Z,88.20
2018-01-27T05:52:45.920Z,91.30
2018-01-27T05:53:45.909Z,85.30
2018-01-27T05:54:45.901Z,85.00
2018-01-27T05:55:45.891Z,77.50
2018-01-27T05:56:45.878Z,89.00
2018-01-27T05:57:45.871Z,89.30
2018-01-27T05:58:45.861Z,87.60
2018-01-27T05:59:45.854Z,80.60
2018-01-27T06:00:45.837Z,85.50
2018-01-27T06:01:45.832Z,86.90
2018-01-27T06:02:45.815Z,87.70
2018-01-27T06:03:45.813Z,79.30
2018-01-27T06:04:45.794Z,76.70
2018-01-27T06:05:45.787Z,81.20
2018-01-27T06:06:45.780Z,81.70
2018-01-27T06:07:45.769Z,79.80
2018-01-27T06:08:45.756Z,82.30
2018-01-27T06:09:45.746Z,90.20
2018-01-27T06:10:45.736Z,83.30
2018-01-27T06:11:45.723Z,83.80
2018-01-27T06:12:45.714Z,87.20
2018-01-27T06:13:45.707Z,84.10
2018-01-27T06:14:45.695Z,83.90
2018-01-27T06:15:45.685Z,82.40
2018-01-27T06:16:45.681Z,79.40
2018-01-27T06:17:45.666Z,83.80
2018-01-27T06:18:45.666Z,78.70
2018-01-27T06:19:45.642Z,80.30
2018-01-27T06:20:45.628Z,86.40
2018-01-27T06:21:45.624Z,80.00
2018-01-27T06:22:45.609Z,78.80
2018-01-27T06:23:45.600Z,78.80
2018-01-27T06:24:45.591Z,77.30
2018-01-27T06:25:45.583Z,86.40
2018-01-27T06:26:45.566Z,82.50
2018-01-27T06:27:45.560Z,85.40
2018-01-27T06:28:45.563Z,83.90
2018-01-27T06:29:45.540Z,76.00
2018-01-27T06:30:45.544Z,79.40
2018-01-27T06:31:45.524Z,91.00
2018-01-27T06:32:45.512Z,81.10
2018-01-27T06:33:45.493Z,77.30
2018-01-27T06:34:45.487Z,79.40
2018-01-27T06:35:45.495Z,80.60
2018-01-27T06:36:45.470Z,80.80
2018-01-27T06:37:45.464Z,83.60
2018-01-27T06:38:45.450Z,79.00
2018-01-27T06:39:45.441Z,82.30
2018-01-27T06:40:45.425Z,83.00
2018-01-27T06:41:45.415Z,78.60
2018-01-27T06:42:45.408Z,74.40
2018-01-27T06:43:45.403Z,86.00
2018-01-27T06:44:45.386Z,84.50
2018-01-27T06:45:45.373Z,76.40
2018-01-27T06:46:45.365Z,80.00
2018-01-27T06:47:45.354Z,79.70
2018-01-27T06:48:45.345Z,76.10
2018-01-27T06:49:45.332Z,82.00
2018-01-27T06:50:45.326Z,73.20
2018-01-27T06:51:45.313Z,77.50
2018-01-27T06:52:45.307Z,76.70
2018-01-27T06:53:45.301Z,81.60
2018-01-27T06:54:45.292Z,77.50
2018-01-27T06:55:45.272Z,82.10
2018-01-27T06:56:45.262Z,78.00
2018-01-27T06:57:45.250Z,80.10
2018-01-27T06:58:45.244Z,81.20
2018-01-27T06:59:45.226Z,77.50
2018-01-27T07:00:45.223Z,70.70
2018-01-27T07:01:45.212Z,81.20
2018-01-27T07:02:45.203Z,77.00
2018-01-27T07:03:45.192Z,80.30
2018-01-27T07:04:45.183Z,74.80
2018-01-27T07:05:45.171Z,78.40
2018-01-27T07:06:45.162Z,70.50
2018-01-27T07:07:45.151Z,74.60
2018-01-27T07:08:45.143Z,70.50
2018-01-27T07:09:45.132Z,77.00
2018-01-27T07:10:45.117Z,75.30
2018-01-27T07:11:45.112Z,73.90
2018-01-27T07:12:45.107Z,75.60
2018-01-27T07:13:45.091Z,75.30
2018-01-27T07:14:45.081Z,73.00
2018-01-27T07:15:45.066Z,72.80
2018-01-27T07:16:45.056Z,78.60
2018-01-27T07:17:45.053Z,73.50
2018-01-27T07:18:45.045Z,75.50
2018-01-27T07:19:45.027Z,80.00
2018-01-27T07:20:45.020Z,78.60
2018-01-27T07:21:45.011Z,74.90
2018-01-27T07:22:44.996Z,78.10
2018-01-27T07:23:44.988Z,84.00
2018-01-27T07:24:44.979Z,80.10
2018-01-27T07:25:44.967Z,76.20
2018-01-27T07:26:44.955Z,77.90
2018-01-27T07:27:44.947Z,80.90
2018-01-27T07:28:44.931Z,80.90
2018-01-27T07:29:44.926Z,79.40
2018-01-27T07:30:44.917Z,80.10
2018-01-27T07:31:44.906Z,80.60
2018-01-27T07:32:44.894Z,82.80
2018-01-27T07:33:44.886Z,80.80
2018-01-27T07:34:44.870Z,80.50
2018-01-27T07:35:44.864Z,83.30
2018-01-27T07:36:44.855Z,81.70
2018-01-27T07:37:44.846Z,81.20
2018-01-27T07:38:44.832Z,79.60
2018-01-27T07:39:44.827Z,79.00
2018-01-27T07:40:44.814Z,81.60
2018-01-27T07:41:44.805Z,76.30
2018-01-27T07:42:44.797Z,79.40
2018-01-27T07:43:44.782Z,76.90
2018-01-27T07:44:44.773Z,77.00
2018-01-27T07:45:44.768Z,75.00
2018-01-27T07:46:44.804Z,79.60
2018-01-27T07:47:44.741Z,81.30
2018-01-27T07:48:44.735Z,81.70
2018-01-27T07:49:44.724Z,82.40
2018-01-27T07:50:44.712Z,74.70
2018-01-27T07:51:44.696Z,82.10
2018-01-27T07:52:44.692Z,75.00
2018-01-27T07:53:44.689Z,79.10
2018-01-27T07:54:44.670Z,75.10
2018-01-27T07:55:44.661Z,78.50
2018-01-27T07:56:44.660Z,82.80
2018-01-27T07:57:44.641Z,83.20
2018-01-27T07:58:44.632Z,84.90
2018-01-27T07:59:44.621Z,77.60
2018-01-27T08:00:44.612Z,80.10
2018-01-27T08:01:44.602Z,80.30
2018-01-27T08:02:44.592Z,82.10
2018-01-27T08:03:45.374Z,83.90
2018-01-27T08:04:44.569Z,79.10
2018-01-27T08:05:44.560Z,84.20
2018-01-27T08:06:44.544Z,86.80
2018-01-27T08:07:44.539Z,82.90
2018-01-27T08:08:44.540Z,82.50
2018-01-27T08:09:44.583Z,86.30
2018-01-27T08:10:44.509Z,89.10
2018-01-27T08:11:44.498Z,80.60
2018-01-27T08:12:44.488Z,89.60
2018-01-27T08:13:44.476Z,87.00
2018-01-27T08:14:44.495Z,87.70
2018-01-27T08:15:44.462Z,82.00
2018-01-27T08:16:44.471Z,85.50
2018-01-27T08:17:44.461Z,82.20
2018-01-27T08:18:44.460Z,88.20
2018-01-27T08:19:44.414Z,87.30
2018-01-27T08:20:44.404Z,85.50
2018-01-27T08:21:44.408Z,84.40
2018-01-27T08:22:44.389Z,86.30
2018-01-27T08:23:44.377Z,83.40
2018-01-27T08:24:44.365Z,89.50
2018-01-27T08:25:44.355Z,85.50
2018-01-27T08:26:44.404Z,84.80
2018-01-27T08:27:44.343Z,90.70
2018-01-27T08:28:44.326Z,83.00
2018-01-27T08:29:44.314Z,87.80
2018-01-27T08:30:44.303Z,87.00
2018-01-27T08:31:44.292Z,89.40
2018-01-27T08:32:44.283Z,85.50
2018-01-27T08:33:44.274Z,86.70
2018-01-27T08:34:44.263Z,84.00
2018-01-27T08:35:44.252Z,81.60
2018-01-27T08:36:44.241Z,84.30
2018-01-27T08:37:44.232Z,82.90
2018-01-27T08:38:44.218Z,82.30
2018-01-27T08:39:44.212Z,82.40
2018-01-27T08:40:44.199Z,89.10
2018-01-27T08:41:44.191Z,89.00
2018-01-27T08:42:44.185Z,90.20
2018-01-27T08:43:44.171Z,84.70
2018-01-27T08:44:44.160Z,83.20
2018-01-27T08:45:44.151Z,83.80
2018-01-27T08:46:44.139Z,81.50
2018-01-27T08:47:44.128Z,84.00
2018-01-27T08:48:44.121Z,88.10
2018-01-27T08:49:44.141Z,87.90
2018-01-27T08:50:44.101Z,78.90
2018-01-27T08:51:44.093Z,86.30
2018-01-27T08:52:44.080Z,84.50
2018-01-27T08:53:44.070Z,82.60
2018-01-27T08:54:44.056Z,84.20
2018-01-27T08:55:44.050Z,83.70
2018-01-27T08:56:44.037Z,80.10
2018-01-27T08:57:44.030Z,83.20
2018-01-27T08:58:44.019Z,82.90
2018-01-27T08:59:44.011Z,82.10
2018-01-27T09:00:43.998Z,83.60
2018-01-27T09:01:43.987Z,80.60
2018-01-27T09:02:43.977Z,83.80
2018-01-27T09:03:43.969Z,81.30
2018-01-27T09:04:43.958Z,80.30
2018-01-27T09:05:43.945Z,78.60
2018-01-27T09:06:43.938Z,79.50
2018-01-27T09:07:43.927Z,80.20
2018-01-27T09:08:43.917Z,75.90
2018-01-27T09:09:43.905Z,73.20
2018-01-27T09:10:43.898Z,77.90
2018-01-27T09:11:43.888Z,72.00
2018-01-27T09:12:43.879Z,69.70
2018-01-27T09:13:43.869Z,69.40
2018-01-27T09:14:43.863Z,72.70
2018-01-27T09:15:43.847Z,66.50
2018-01-27T09:16:43.840Z,68.10
2018-01-27T09:17:43.830Z,67.00
2018-01-27T09:18:43.822Z,62.60
2018-01-27T09:19:43.821Z,65.20
2018-01-27T09:20:43.803Z,67.30
2018-01-27T09:21:43.794Z,65.20
2018-01-27T09:22:43.784Z,63.60
2018-01-27T09:23:43.777Z,66.40
2018-01-27T09:24:43.763Z,61.20
2018-01-27T09:25:43.757Z,64.40
2018-01-27T09:26:43.750Z,64.80
2018-01-27T09:27:43.739Z,59.40
2018-01-27T09:28:43.728Z,62.20
2018-01-27T09:29:43.720Z,62.50
2018-01-27T09:30:43.712Z,59.60
2018-01-27T09:31:43.701Z,58.60
2018-01-27T09:32:43.691Z,60.80
2018-01-27T09:33:43.685Z,56.80
2018-01-27T09:34:43.674Z,54.90
2018-01-27T09:35:43.667Z,59.60
2018-01-27T09:36:43.651Z,61.70
2018-01-27T09:37:43.646Z,53.60
2018-01-27T09:38:43.638Z,58.00
2018-01-27T09:39:43.629Z,60.10
2018-01-27T09:40:43.624Z,53.50
2018-01-27T09:41:43.644Z,52.90
2018-01-27T09:42:43.604Z,50.40
2018-01-27T09:43:43.593Z,48.10
2018-01-27T09:44:43.587Z,47.70
2018-01-27T09:45:43.585Z,49.00
2018-01-27T09:46:43.574Z,47.10
2018-01-27T09:47:43.591Z,47.90
2018-01-27T09:48:43.558Z,47.40
2018-01-27T09:49:43.551Z,47.60
2018-01-27T09:50:43.541Z,45.10
2018-01-27T09:51:43.535Z,43.30
2018-01-27T09:52:43.532Z,46.30
2018-01-27T09:53:43.536Z,43.00
2018-01-27T09:54:43.524Z,44.60
2018-01-27T09:55:43.515Z,45.50
2018-01-27T09:56:43.512Z,39.10
2018-01-27T09:57:43.509Z,38.60
2018-01-27T09:58:43.498Z,34.70
2018-01-27T09:59:43.487Z,35.40
2018-01-27T10:00:43.487Z,36.20
2018-01-27T10:01:43.485Z,34.10
2018-01-27T10:02:43.482Z,35.70
2018-01-27T10:03:43.476Z,36.20
2018-01-27T10:04:43.476Z,37.30
2018-01-27T10:05:43.470Z,32.20
2018-01-27T10:06:43.466Z,31.60
2018-01-27T10:07:43.460Z,29.40
2018-01-27T10:08:43.450Z,29.80
2018-01-27T10:09:43.450Z,26.90
2018-01-27T10:10:43.448Z,30.30
2018-01-27T10:11:43.446Z,30.50
2018-01-27T10:12:43.442Z,26.10
2018-01-27T10:13:43.437Z,23.90
2018-01-27T10:14:43.436Z,23.50
2018-01-27T10:15:43.431Z,24.60
2018-01-27T10:16:43.429Z,24.20
2018-01-27T10:17:43.452Z,22.80
2018-01-27T10:18:43.423Z,23.70
2018-01-27T10:19:43.415Z,22.60
2018-01-27T10:20:43.413Z,23.50
2018-01-27T10:21:43.411Z,23.30
2018-01-27T10:22:43.425Z,24.10
2018-01-27T10:23:43.410Z,27.70
2018-01-27T10:24:43.403Z,25.90
2018-01-27T10:25:43.478Z,25.50
2018-01-27T10:26:43.396Z,28.80
2018-01-27T10:27:43.404Z,26.30
2018-01-27T10:28:43.387Z,27.40
2018-01-27T10:29:43.381Z,26.20
2018-01-27T10:30:43.377Z,30.20
2018-01-27T10:31:43.379Z,28.20
2018-01-27T10:32:43.396Z,30.00
2018-01-27T10:33:43.382Z,30.20
2018-01-27T10:34:43.362Z,34.50
2018-01-27T10:35:43.354Z,33.20
2018-01-27T10:36:43.348Z,34.70
2018-01-27T10:37:43.342Z,32.30
2018-01-27T10:38:43.337Z,35.40
2018-01-27T10:39:43.330Z,33.60
2018-01-27T10:40:43.329Z,34.90
2018-01-27T10:41:43.322Z,34.60
2018-01-27T10:42:43.313Z,36.70
2018-01-27T10:43:43.307Z,34.20
2018-01-27T10:44:43.295Z,36.00
2018-01-27T10:45:43.301Z,35.10
2018-01-27T10:46:43.312Z,36.90
2018-01-27T10:47:43.280Z,37.30
2018-01-27T10:48:43.270Z,37.20
2018-01-27T10:49:43.266Z,40.60
2018-01-27T10:50:43.256Z,37.00
2018-01-27T10:51:43.255Z,39.70
2018-01-27T10:52:43.244Z,36.10
2018-01-27T10:53:43.237Z,35.00
2018-01-27T10:54:43.231Z,34.70
2018-01-27T10:55:43.231Z,37.40
2018-01-27T10:56:43.217Z,38.10
2018-01-27T10:57:43.210Z,37.30
2018-01-27T10:58:43.209Z,38.90
2018-01-27T10:59:43.201Z,39.90
2018-01-27T11:00:43.192Z,39.50
2018-01-27T11:01:43.182Z,39.90
2018-01-27T11:02:43.180Z,39.00
2018-01-27T11:03:43.170Z,40.60
2018-01-27T11:04:43.171Z,41.60
2018-01-27T11:05:43.154Z,39.70
2018-01-27T11:06:43.149Z,38.30
2018-01-27T11:07:43.142Z,40.10
2018-01-27T11:08:43.131Z,39.20
2018-01-27T11:09:43.124Z,38.90
2018-01-27T11:10:43.118Z,38.60
2018-01-27T11:11:43.106Z,42.40
2018-01-27T11:12:43.101Z,41.20
2018-01-27T11:13:43.124Z,37.80
2018-01-27T11:14:43.083Z,40.70
2018-01-27T11:15:43.082Z,41.20
2018-01-27T11:16:43.077Z,42.00
2018-01-27T11:17:43.060Z,39.60
2018-01-27T11:18:43.060Z,40.10
2018-01-27T11:19:45.846Z,42.30
2018-01-27T11:20:44.802Z,38.50
2018-01-27T11:21:43.022Z,38.30
2018-01-27T11:22:43.055Z,38.30
2018-01-27T11:23:43.010Z,38.00
2018-01-27T11:24:43.000Z,36.00
2018-01-27T11:25:43.015Z,37.90
2018-01-27T11:26:42.983Z,40.80
2018-01-27T11:27:42.977Z,41.50
2018-01-27T11:28:42.964Z,40.10
2018-01-27T11:29:42.954Z,40.30
2018-01-27T11:30:42.951Z,37.80
2018-01-27T11:31:42.933Z,41.40
2018-01-27T11:32:42.985Z,40.40
2018-01-27T11:33:42.923Z,39.30
2018-01-27T11:34:42.911Z,41.00
2018-01-27T11:35:42.899Z,40.00
2018-01-27T11:36:42.926Z,38.30
2018-01-27T11:37:42.902Z,42.60
2018-01-27T11:38:42.888Z,40.10
2018-01-27T11:39:42.870Z,40.20
2018-01-27T11:40:42.874Z,40.20
2018-01-27T11:41:42.847Z,39.50
2018-01-27T11:42:42.838Z,39.20
2018-01-27T11:43:42.854Z,39.50
2018-01-27T11:44:42.832Z,42.70
2018-01-27T11:45:42.834Z,42.00
2018-01-27T11:46:42.805Z,40.70
2018-01-27T11:47:42.798Z,41.00
2018-01-27T11:48:42.783Z,44.80
2018-01-27T11:49:42.774Z,40.90
2018-01-27T11:50:42.784Z,42.70
2018-01-27T11:51:42.758Z,39.00
2018-01-27T11:52:42.762Z,41.20
2018-01-27T11:53:42.742Z,39.60
2018-01-27T11:54:42.740Z,40.90
2018-01-27T11:55:42.719Z,42.00
2018-01-27T11:56:42.714Z,39.20
2018-01-27T11:57:42.849Z,41.40
2018-01-27T11:58:42.694Z,38.70
2018-01-27T11:59:42.686Z,38.60
2018-01-27T12:00:42.676Z,37.00
2018-01-27T12:01:42.664Z,40.20
2018-01-27T12:02:42.659Z,38.50
2018-01-27T12:03:42.656Z,40.50
2018-01-27T12:04:42.688Z,38.10
2018-01-27T12:05:42.630Z,37.80
2018-01-27T12:06:42.629Z,37.20
2018-01-27T12:07:42.610Z,36.30
2018-01-27T12:08:42.604Z,38.40
2018-01-27T12:09:42.613Z,37.40
2018-01-27T12:10:42.596Z,37.00
2018-01-27T12:11:42.579Z,34.80
2018-01-27T12:12:42.571Z,35.30
2018-01-27T12:13:42.563Z,36.90
2018-01-27T12:14:42.547Z,36.80
2018-01-27T12:15:42.545Z,38.00
2018-01-27T12:16:42.540Z,34.70
2018-01-27T12:17:42.523Z,36.70
2018-01-27T12:18:42.516Z,34.90
2018-01-27T12:19:42.506Z,35.40
2018-01-27T12:20:42.513Z,36.90
2018-01-27T12:21:42.491Z,36.00
2018-01-27T12:22:42.487Z,34.30
2018-01-27T12:23:42.472Z,35.70
2018-01-27T12:24:42.465Z,34.40
2018-01-27T12:25:42.458Z,31.70
2018-01-27T12:26:42.448Z,29.70
2018-01-27T12:27:42.435Z,33.70
2018-01-27T12:28:42.425Z,33.70
2018-01-27T12:29:42.419Z,34.20
2018-01-27T12:30:42.418Z,35.30
2018-01-27T12:31:42.399Z,33.90
2018-01-27T12:32:42.391Z,37.30
2018-01-27T12:33:42.380Z,33.10
2018-01-27T12:34:42.380Z,36.40
2018-01-27T12:35:42.364Z,32.40
2018-01-27T12:36:42.358Z,34.20
2018-01-27T12:37:42.370Z,37.60
2018-01-27T12:38:42.340Z,35.80
2018-01-27T12:39:42.331Z,34.60
2018-01-27T12:40:42.324Z,33.10
2018-01-27T12:41:42.310Z,36.50
2018-01-27T12:42:42.305Z,35.10
2018-01-27T12:43:42.311Z,35.60
2018-01-27T12:44:42.291Z,36.40
2018-01-27T12:45:42.280Z,35.50
2018-01-27T12:46:42.267Z,37.20
2018-01-27T12:47:42.262Z,33.20
2018-01-27T12:48:42.247Z,35.60
2018-01-27T12:49:42.284Z,36.00
2018-01-27T12:50:42.241Z,34.90
2018-01-27T12:51:42.228Z,37.00
2018-01-27T12:52:42.211Z,36.50
2018-01-27T12:53:42.205Z,36.00
2018-01-27T12:54:42.206Z,38.50
2018-01-27T12:55:42.186Z,34.00
2018-01-27T12:56:42.171Z,36.90
2018-01-27T12:57:42.166Z,35.80